Terminal Aerodrome Forecast
Issued by NWS

Home | Current Version | Previous Version | Text Only | Print | Product List | Glossary On
Versions: 1 2 3 4 5 6 7 8 9 10 11 12 13 14 15 16 17 18
000
FTUS45 KPSR 301521 AAB
TAFIPL
TAF AMD
KIPL 301521Z 3015/3112 10009KT P6SM VCSH BKN100 BKN200
      TEMPO 3015/3017 5SM BLDU FEW030 BKN100
     FM301700 12011KT P6SM FEW100 BKN150 BKN250=

USA.gov is the U.S. government's official web portal to all federal, state and local government web resources and services.